createdAt,value
2022-11-24T00:02:21.024Z,9.01
2022-11-24T00:04:48.615Z,9.12
2022-11-24T00:07:16.120Z,8.70
2022-11-24T00:09:43.586Z,8.57
2022-11-24T00:12:12.446Z,9.12
2022-11-24T00:14:39.913Z,8.92
2022-11-24T00:17:07.399Z,8.88
2022-11-24T00:19:34.995Z,8.72
2022-11-24T00:22:02.437Z,9.04
2022-11-24T00:24:29.912Z,9.07
2022-11-24T00:26:57.362Z,8.81
2022-11-24T00:29:26.255Z,8.93
2022-11-24T00:31:53.706Z,8.98
2022-11-24T00:34:21.175Z,9.00
2022-11-24T00:36:48.628Z,8.84
2022-11-24T00:39:16.325Z,8.85
2022-11-24T00:41:43.946Z,8.89
2022-11-24T00:44:11.464Z,8.75
2022-11-24T00:46:40.394Z,8.54
2022-11-24T00:49:08.155Z,8.86
2022-11-24T00:51:35.653Z,8.61
2022-11-24T00:54:03.188Z,8.62
2022-11-24T00:56:30.770Z,8.87
2022-11-24T00:58:58.263Z,8.53
2022-11-24T01:01:26.411Z,8.66
2022-11-24T01:03:55.844Z,8.73
2022-11-24T01:06:24.040Z,8.77
2022-11-24T01:08:51.766Z,8.87
2022-11-24T01:11:20.198Z,8.89
2022-11-24T01:13:48.164Z,8.90
2022-11-24T01:16:16.434Z,8.83
2022-11-24T01:18:43.965Z,8.60
2022-11-24T01:21:12.785Z,8.75
2022-11-24T01:23:40.235Z,8.55
2022-11-24T01:26:07.852Z,8.68
2022-11-24T01:28:35.326Z,8.67
2022-11-24T01:31:03.244Z,8.76
2022-11-24T01:33:30.754Z,8.59
2022-11-24T01:35:58.245Z,8.51
2022-11-24T01:38:27.465Z,8.75
2022-11-24T01:41:01.148Z,9.01
2022-11-24T01:43:28.609Z,8.53
2022-11-24T01:45:56.075Z,8.78
2022-11-24T01:48:27.755Z,8.86
2022-11-24T01:50:57.011Z,8.97
2022-11-24T01:53:24.467Z,9.08
2022-11-24T01:55:53.277Z,8.77
2022-11-24T01:58:21.303Z,8.77
2022-11-24T02:00:48.748Z,8.83
2022-11-24T02:03:16.922Z,8.53
2022-11-24T02:05:44.828Z,8.83
2022-11-24T02:08:14.496Z,8.87
2022-11-24T02:10:41.948Z,9.00
2022-11-24T02:13:11.160Z,8.90
2022-11-24T02:15:38.623Z,9.01
2022-11-24T02:18:06.283Z,8.70
2022-11-24T02:20:34.103Z,8.89
2022-11-24T02:23:02.703Z,9.10
2022-11-24T02:25:32.203Z,8.74
2022-11-24T02:28:01.395Z,8.70
2022-11-24T02:30:28.919Z,8.80
2022-11-24T02:32:56.381Z,8.83
2022-11-24T02:35:24.403Z,8.91
2022-11-24T02:37:51.880Z,8.80
2022-11-24T02:40:20.135Z,8.80
2022-11-24T02:42:47.659Z,8.95
2022-11-24T02:45:16.535Z,9.02
2022-11-24T02:47:43.971Z,8.92
2022-11-24T02:50:11.463Z,9.00
2022-11-24T02:52:38.907Z,9.19
2022-11-24T02:55:06.463Z,9.42
2022-11-24T02:57:33.964Z,9.18
2022-11-24T03:00:01.451Z,8.87
2022-11-24T03:02:30.710Z,9.07
2022-11-24T03:04:58.187Z,9.28
2022-11-24T03:07:25.784Z,9.11
2022-11-24T03:09:53.234Z,9.00
2022-11-24T03:12:20.705Z,9.04
2022-11-24T03:14:48.140Z,9.24
2022-11-24T03:17:15.627Z,9.04
2022-11-24T03:19:44.418Z,8.96
2022-11-24T03:22:13.880Z,9.03
2022-11-24T03:24:41.354Z,9.07
2022-11-24T03:27:08.919Z,8.99
2022-11-24T03:29:36.364Z,9.15
2022-11-24T03:32:03.961Z,8.87
2022-11-24T03:34:31.685Z,8.99
2022-11-24T03:37:00.679Z,9.06
2022-11-24T03:39:28.120Z,8.86
2022-11-24T03:41:55.628Z,9.00
2022-11-24T03:44:23.098Z,9.21
2022-11-24T03:46:51.879Z,9.05
2022-11-24T03:49:19.389Z,8.93
2022-11-24T03:51:46.868Z,9.06
2022-11-24T03:54:15.679Z,8.81
2022-11-24T03:56:43.708Z,9.12
2022-11-24T03:59:11.188Z,9.08
2022-11-24T04:01:38.750Z,8.84
2022-11-24T04:04:06.394Z,9.08
2022-11-24T04:06:33.868Z,8.73
2022-11-24T04:09:01.342Z,8.88
2022-11-24T04:11:47.372Z,8.84
2022-11-24T04:14:14.919Z,9.05
2022-11-24T04:16:42.399Z,9.07
2022-11-24T04:19:09.850Z,9.44
2022-11-24T04:21:37.303Z,9.10
2022-11-24T04:24:04.845Z,9.18
2022-11-24T04:26:33.736Z,9.70
2022-11-24T04:29:01.171Z,9.58
2022-11-24T04:31:28.697Z,9.62
2022-11-24T04:33:56.178Z,9.70
2022-11-24T04:36:23.724Z,9.66
2022-11-24T04:39:24.541Z,9.64
2022-11-24T04:41:41.760Z,9.73
2022-11-24T04:44:09.213Z,9.66
2022-11-24T04:46:36.734Z,9.56
2022-11-24T04:49:04.287Z,9.12
2022-11-24T04:51:31.778Z,9.30
2022-11-24T04:53:59.260Z,9.58
2022-11-24T04:56:26.724Z,9.34
2022-11-24T04:58:55.535Z,9.11
2022-11-24T05:01:23.012Z,9.09
2022-11-24T05:03:50.563Z,9.16
2022-11-24T05:06:18.037Z,9.14
2022-11-24T05:08:47.786Z,9.06
2022-11-24T05:11:14.430Z,8.97
2022-11-24T05:13:41.880Z,9.00
2022-11-24T05:16:10.763Z,9.02
2022-11-24T05:18:38.924Z,9.21
2022-11-24T05:21:06.503Z,9.18
2022-11-24T05:23:33.925Z,9.26
2022-11-24T05:26:01.788Z,9.20
2022-11-24T05:28:29.509Z,9.29
2022-11-24T05:30:59.649Z,9.35
2022-11-24T05:33:29.997Z,9.64
2022-11-24T05:36:00.752Z,9.83
2022-11-24T05:38:29.598Z,9.82
2022-11-24T05:41:00.578Z,9.97
2022-11-24T05:43:28.042Z,9.54
2022-11-24T05:45:55.581Z,9.64
2022-11-24T05:48:23.041Z,10.02
2022-11-24T05:50:55.432Z,9.95
2022-11-24T05:53:22.892Z,9.91
2022-11-24T05:55:50.419Z,10.06
2022-11-24T05:58:18.079Z,10.17
2022-11-24T06:00:45.526Z,9.99
2022-11-24T06:03:13.080Z,10.35
2022-11-24T06:05:40.655Z,10.21
2022-11-24T06:08:09.471Z,10.18
2022-11-24T06:10:37.045Z,9.95
2022-11-24T06:13:07.208Z,10.22
2022-11-24T06:15:34.753Z,9.67
2022-11-24T06:18:02.297Z,9.87
2022-11-24T06:20:32.624Z,9.79
2022-11-24T06:23:01.024Z,10.27
2022-11-24T06:25:30.087Z,10.29
2022-11-24T06:27:57.544Z,9.97
2022-11-24T06:30:25.043Z,9.99
2022-11-24T06:32:55.335Z,10.28
2022-11-24T06:35:22.824Z,10.42
2022-11-24T06:37:50.328Z,10.48
2022-11-24T06:40:18.095Z,10.26
2022-11-24T06:42:52.571Z,10.47
2022-11-24T06:45:20.048Z,10.43
2022-11-24T06:47:47.550Z,10.48
2022-11-24T06:50:15.115Z,10.15
2022-11-24T06:52:42.634Z,10.41
2022-11-24T06:55:10.331Z,10.02
2022-11-24T06:57:37.843Z,10.28
2022-11-24T07:00:07.841Z,10.41
2022-11-24T07:02:35.452Z,9.72
2022-11-24T07:05:03.025Z,9.93
2022-11-24T07:07:30.560Z,9.79
2022-11-24T07:09:58.109Z,10.13
2022-11-24T07:12:25.648Z,10.13
2022-11-24T07:14:53.144Z,10.28
2022-11-24T07:17:22.124Z,10.21
2022-11-24T07:19:49.579Z,9.92
2022-11-24T07:22:17.132Z,9.79
2022-11-24T07:24:44.611Z,9.84
2022-11-24T07:27:12.152Z,10.36
2022-11-24T07:29:39.709Z,10.15
2022-11-24T07:32:07.366Z,10.04
2022-11-24T07:34:36.637Z,9.71
2022-11-24T07:37:04.443Z,10.37
2022-11-24T07:39:31.980Z,10.18
2022-11-24T07:41:59.440Z,10.32
2022-11-24T07:44:26.955Z,10.47
2022-11-24T07:46:54.436Z,10.29
2022-11-24T07:49:21.982Z,9.51
2022-11-24T07:51:50.803Z,9.92
2022-11-24T07:54:18.306Z,10.12
2022-11-24T07:56:45.845Z,10.01
2022-11-24T07:59:13.309Z,10.29
2022-11-24T08:01:41.002Z,9.87
2022-11-24T08:04:08.571Z,10.41
2022-11-24T08:06:40.932Z,10.30
2022-11-24T08:09:13.468Z,10.33
2022-11-24T08:11:41.439Z,10.01
2022-11-24T08:14:09.055Z,10.12
2022-11-24T08:16:36.607Z,10.03
2022-11-24T08:19:04.061Z,9.82
2022-11-24T08:21:32.490Z,9.93
2022-11-24T08:23:59.917Z,9.94
2022-11-24T08:26:28.785Z,9.78
2022-11-24T08:28:56.949Z,9.93
2022-11-24T08:31:24.924Z,9.71
2022-11-24T08:33:52.692Z,9.81
2022-11-24T08:36:20.314Z,9.90
2022-11-24T08:38:48.921Z,10.10
2022-11-24T08:41:16.970Z,9.97
2022-11-24T08:43:45.863Z,10.07
2022-11-24T08:46:16.853Z,9.75
2022-11-24T08:48:44.904Z,9.96
2022-11-24T08:51:12.892Z,9.63
2022-11-24T08:53:40.611Z,9.78
2022-11-24T08:56:08.581Z,9.94
2022-11-24T08:58:36.454Z,10.01
2022-11-24T09:01:08.984Z,9.95
2022-11-24T09:03:37.648Z,9.98
2022-11-24T09:06:05.432Z,9.57
2022-11-24T09:08:33.151Z,9.63
2022-11-24T09:11:01.254Z,9.44
2022-11-24T09:13:28.733Z,9.42
2022-11-24T09:15:56.285Z,9.83
2022-11-24T09:18:29.959Z,9.70
2022-11-24T09:21:06.540Z,9.90
2022-11-24T09:23:34.075Z,9.84
2022-11-24T09:26:03.920Z,10.05
2022-11-24T09:28:31.399Z,9.77
2022-11-24T09:31:01.216Z,9.97
2022-11-24T09:33:29.994Z,9.91
2022-11-24T09:35:58.892Z,9.82
2022-11-24T09:38:26.532Z,10.15
2022-11-24T09:40:56.474Z,10.29
2022-11-24T09:43:25.024Z,9.71
2022-11-24T09:46:08.074Z,9.74
2022-11-24T09:48:36.382Z,10.09
2022-11-24T09:51:05.472Z,10.20
2022-11-24T09:53:33.354Z,9.91
2022-11-24T09:56:01.846Z,10.03
2022-11-24T09:58:32.482Z,10.21
2022-11-24T10:01:00.032Z,10.66
2022-11-24T10:03:28.668Z,9.99
2022-11-24T10:05:56.152Z,10.74
2022-11-24T10:08:36.776Z,10.40
2022-11-24T10:11:04.827Z,10.49
2022-11-24T10:13:39.728Z,10.68
2022-11-24T10:16:09.134Z,9.98
2022-11-24T10:18:43.302Z,10.91
2022-11-24T10:21:14.837Z,10.83
2022-11-24T10:23:47.128Z,10.74
2022-11-24T10:26:17.344Z,10.60
2022-11-24T10:28:46.566Z,10.74
2022-11-24T10:31:17.616Z,10.71
2022-11-24T10:33:45.166Z,11.22
2022-11-24T10:36:13.314Z,11.65
2022-11-24T10:38:42.747Z,11.46
2022-11-24T10:41:13.317Z,10.42
2022-11-24T10:43:40.816Z,10.88
2022-11-24T10:46:10.736Z,11.23
2022-11-24T10:48:39.929Z,11.65
2022-11-24T10:51:13.783Z,11.11
2022-11-24T10:53:41.332Z,10.58
2022-11-24T10:56:08.855Z,11.07
2022-11-24T10:58:38.784Z,11.28
2022-11-24T11:01:21.556Z,11.34
2022-11-24T11:03:49.879Z,11.60
2022-11-24T11:06:22.212Z,11.31
2022-11-24T11:08:49.767Z,11.12
2022-11-24T11:11:21.693Z,10.99
2022-11-24T11:14:01.568Z,11.53
2022-11-24T11:16:33.989Z,10.87
2022-11-24T11:19:15.704Z,11.59
2022-11-24T11:21:50.732Z,11.83
2022-11-24T11:24:18.387Z,11.67
2022-11-24T11:26:45.926Z,11.27
2022-11-24T11:34:53.200Z,11.59
2022-11-24T11:37:21.065Z,11.09
2022-11-24T11:39:49.334Z,11.74
2022-11-24T11:42:45.471Z,11.44
2022-11-24T11:45:11.788Z,11.33
2022-11-24T11:47:39.689Z,11.16
2022-11-24T11:50:12.766Z,11.71
2022-11-24T11:52:52.199Z,11.20
2022-11-24T11:55:37.784Z,11.09
2022-11-24T11:58:08.481Z,11.65
2022-11-24T12:00:38.180Z,11.35
2022-11-24T12:03:26.486Z,11.83
2022-11-24T12:05:56.847Z,12.06
2022-11-24T12:08:27.216Z,10.95
2022-11-24T12:10:55.526Z,11.47
2022-11-24T12:13:33.405Z,11.60
2022-11-24T12:16:04.329Z,12.08
2022-11-24T12:18:56.672Z,12.54
2022-11-24T12:21:26.267Z,12.63
2022-11-24T12:23:57.421Z,12.60
2022-11-24T12:26:26.481Z,11.85
2022-11-24T12:28:56.770Z,12.03
2022-11-24T12:31:27.288Z,12.29
2022-11-24T12:34:01.503Z,12.17
2022-11-24T12:36:33.509Z,12.33
2022-11-24T12:39:03.186Z,12.60
2022-11-24T12:41:41.727Z,12.26
2022-11-24T12:44:11.413Z,12.00
2022-11-24T12:46:41.635Z,12.84
2022-11-24T12:49:11.221Z,13.26
2022-11-24T12:51:39.512Z,13.07
2022-11-24T12:54:07.684Z,12.92
2022-11-24T12:56:36.981Z,13.23
2022-11-24T12:59:10.093Z,13.07
2022-11-24T13:01:39.201Z,12.34
2022-11-24T13:04:11.609Z,12.60
2022-11-24T13:06:45.872Z,12.40
2022-11-24T13:09:16.499Z,12.80
2022-11-24T13:11:44.344Z,12.99
2022-11-24T13:14:19.178Z,12.73
2022-11-24T13:17:13.456Z,12.56
2022-11-24T13:19:39.323Z,12.67
2022-11-24T13:22:17.215Z,12.70
2022-11-24T13:24:45.037Z,12.73
2022-11-24T13:27:29.081Z,12.80
2022-11-24T13:29:56.583Z,12.25
2022-11-24T13:32:53.153Z,12.11
2022-11-24T13:35:22.078Z,11.94
2022-11-24T13:37:53.193Z,12.41
2022-11-24T13:40:45.935Z,11.93
2022-11-24T13:43:24.787Z,12.52
2022-11-24T13:45:53.715Z,12.51
2022-11-24T13:48:39.855Z,12.37
2022-11-24T13:51:15.053Z,12.67
2022-11-24T13:53:43.115Z,12.52
2022-11-24T13:56:20.585Z,12.78
2022-11-24T13:58:48.702Z,12.55
2022-11-24T14:01:17.307Z,12.62
2022-11-24T14:04:07.136Z,12.44
2022-11-24T14:06:36.216Z,12.45
2022-11-24T14:09:06.031Z,12.34
2022-11-24T14:11:33.552Z,12.17
2022-11-24T14:14:01.079Z,12.35
2022-11-24T14:16:28.650Z,12.07
2022-11-24T14:18:56.165Z,11.82
2022-11-24T14:21:24.836Z,12.32
2022-11-24T14:23:54.829Z,11.92
2022-11-24T14:26:22.947Z,12.05
2022-11-24T14:28:50.765Z,12.05
2022-11-24T14:31:25.128Z,12.13
2022-11-24T14:34:07.407Z,11.97
2022-11-24T14:36:34.984Z,12.01
2022-11-24T14:39:03.975Z,11.77
2022-11-24T14:41:31.419Z,11.88
2022-11-24T14:44:08.272Z,11.76
2022-11-24T14:46:35.856Z,11.76
2022-11-24T14:49:03.462Z,11.73
2022-11-24T14:51:31.679Z,11.67
2022-11-24T14:53:59.904Z,11.41
2022-11-24T14:56:29.575Z,11.55
2022-11-24T14:58:57.528Z,11.43
2022-11-24T15:01:30.254Z,11.22
2022-11-24T15:04:17.865Z,11.27
2022-11-24T15:07:12.487Z,11.17
2022-11-24T15:09:43.851Z,11.02
2022-11-24T15:12:28.813Z,10.88
2022-11-24T15:14:56.871Z,10.88
2022-11-24T15:17:25.196Z,10.76
2022-11-24T15:19:53.186Z,10.68
2022-11-24T15:22:37.414Z,10.56
2022-11-24T15:25:05.196Z,10.39
2022-11-24T15:27:34.004Z,10.37
2022-11-24T15:30:01.542Z,10.34
2022-11-24T15:32:29.113Z,10.20
2022-11-24T15:34:56.605Z,10.21
2022-11-24T15:37:24.118Z,10.10
2022-11-24T15:39:51.613Z,10.02
2022-11-24T15:42:19.069Z,9.91
2022-11-24T15:44:47.973Z,9.82
2022-11-24T15:47:15.463Z,9.81
2022-11-24T15:49:42.915Z,9.72
2022-11-24T15:52:10.429Z,9.63
2022-11-24T15:54:37.920Z,9.62
2022-11-24T15:57:05.466Z,9.56
2022-11-24T15:59:33.889Z,9.51
2022-11-24T16:02:02.775Z,9.54
2022-11-24T16:04:32.271Z,9.57
2022-11-24T16:07:00.610Z,9.44
2022-11-24T16:09:28.119Z,9.41
2022-11-24T16:11:55.862Z,9.41
2022-11-24T16:14:23.454Z,9.45
2022-11-24T16:16:51.276Z,9.51
2022-11-24T16:19:20.138Z,9.47
2022-11-24T16:21:48.276Z,9.52
2022-11-24T16:24:15.894Z,9.48
2022-11-24T16:26:43.374Z,9.54
2022-11-24T16:29:10.905Z,9.41
2022-11-24T16:31:38.729Z,9.40
2022-11-24T16:34:06.309Z,9.41
2022-11-24T16:36:35.195Z,9.50
2022-11-24T16:39:02.942Z,9.46
2022-11-24T16:41:30.390Z,9.52
2022-11-24T16:43:58.015Z,9.56
2022-11-24T16:46:26.017Z,9.47
2022-11-24T16:48:54.896Z,9.44
2022-11-24T16:51:22.829Z,9.50
2022-11-24T16:53:51.857Z,9.30
2022-11-24T16:56:19.327Z,9.39
2022-11-24T16:58:46.812Z,9.53
2022-11-24T17:01:14.591Z,9.65
2022-11-24T17:03:42.198Z,9.51
2022-11-24T17:06:11.277Z,9.35
2022-11-24T17:08:39.771Z,9.56
2022-11-24T17:11:08.691Z,9.54
2022-11-24T17:13:36.228Z,9.52
2022-11-24T17:16:04.683Z,9.36
2022-11-24T17:18:32.304Z,9.43
2022-11-24T17:21:03.187Z,9.39
2022-11-24T17:23:33.648Z,9.22
2022-11-24T17:26:04.399Z,9.51
2022-11-24T17:28:33.253Z,9.68
2022-11-24T17:31:00.739Z,9.77
2022-11-24T17:33:29.192Z,9.64
2022-11-24T17:35:57.082Z,9.53
2022-11-24T17:38:24.541Z,9.44
2022-11-24T17:40:52.299Z,9.48
2022-11-24T17:43:19.783Z,9.50
2022-11-24T17:45:49.631Z,9.43
2022-11-24T17:48:17.179Z,9.52
2022-11-24T17:50:44.697Z,9.52
2022-11-24T17:53:12.262Z,9.48
2022-11-24T17:55:40.631Z,9.57
2022-11-24T17:58:08.080Z,9.65
2022-11-24T18:00:35.757Z,9.58
2022-11-24T18:03:05.367Z,9.49
2022-11-24T18:05:36.208Z,9.59
2022-11-24T18:08:03.672Z,9.72
2022-11-24T18:10:32.667Z,9.71
2022-11-24T18:13:00.124Z,9.63
2022-11-24T18:15:27.598Z,9.45
2022-11-24T18:17:55.147Z,9.44
2022-11-24T18:20:23.965Z,9.54
2022-11-24T18:23:05.015Z,9.51
2022-11-24T18:25:33.340Z,9.63
2022-11-24T18:28:00.867Z,9.51
2022-11-24T18:30:28.347Z,9.59
2022-11-24T18:32:55.784Z,9.42
2022-11-24T18:35:24.833Z,9.48
2022-11-24T18:37:52.364Z,9.21
2022-11-24T18:40:20.064Z,9.46
2022-11-24T18:42:47.560Z,9.43
2022-11-24T18:45:15.102Z,9.29
2022-11-24T18:47:42.621Z,9.47
2022-11-24T18:50:10.320Z,9.41
2022-11-24T18:52:39.213Z,9.42
2022-11-24T18:55:07.094Z,9.32
2022-11-24T18:57:34.573Z,9.15
2022-11-24T19:00:02.165Z,9.22
2022-11-24T19:02:29.762Z,9.33
2022-11-24T19:04:57.320Z,9.20
2022-11-24T19:07:24.876Z,9.29
2022-11-24T19:09:53.755Z,9.15
2022-11-24T19:12:21.227Z,9.33
2022-11-24T19:14:48.678Z,9.29
2022-11-24T19:17:16.156Z,9.31
2022-11-24T19:19:43.661Z,9.19
2022-11-24T19:22:11.125Z,8.98
2022-11-24T19:24:38.836Z,9.51
2022-11-24T19:27:07.858Z,9.25
2022-11-24T19:29:37.943Z,9.42
2022-11-24T19:32:09.274Z,9.28
2022-11-24T19:34:37.121Z,9.43
2022-11-24T19:37:04.791Z,9.22
2022-11-24T19:39:32.335Z,9.11
2022-11-24T19:41:59.837Z,9.48
2022-11-24T19:44:28.738Z,9.20
2022-11-24T19:46:56.204Z,9.38
2022-11-24T19:49:23.664Z,9.25
2022-11-24T19:51:51.460Z,9.39
2022-11-24T19:54:18.963Z,9.18
2022-11-24T19:56:46.475Z,9.29
2022-11-24T19:59:14.135Z,9.13
2022-11-24T20:01:43.497Z,9.04
2022-11-24T20:04:12.374Z,9.19
2022-11-24T20:06:40.496Z,9.12
2022-11-24T20:09:09.081Z,9.23
2022-11-24T20:11:36.589Z,9.03
2022-11-24T20:14:04.253Z,9.11
2022-11-24T20:16:32.407Z,9.29
2022-11-24T20:19:01.786Z,9.09
2022-11-24T20:21:31.201Z,9.13
2022-11-24T20:23:59.480Z,8.83
2022-11-24T20:26:28.204Z,8.77
2022-11-24T20:28:56.400Z,8.82
2022-11-24T20:31:24.682Z,9.04
2022-11-24T20:33:52.285Z,9.14
2022-11-24T20:36:22.224Z,8.96
2022-11-24T20:38:50.118Z,8.73
2022-11-24T20:41:18.304Z,8.87
2022-11-24T20:43:45.944Z,8.90
2022-11-24T20:46:14.403Z,8.88
2022-11-24T20:48:41.948Z,9.17
2022-11-24T20:51:10.472Z,8.97
2022-11-24T20:53:39.387Z,8.99
2022-11-24T20:56:07.690Z,8.75
2022-11-24T20:58:35.512Z,9.06
2022-11-24T21:01:06.972Z,8.91
2022-11-24T21:03:37.252Z,8.88
2022-11-24T21:06:08.971Z,9.05
2022-11-24T21:08:37.367Z,9.02
2022-11-24T21:11:08.663Z,8.57
2022-11-24T21:13:36.536Z,8.87
2022-11-24T21:16:11.995Z,9.03
2022-11-24T21:18:39.596Z,9.26
2022-11-24T21:21:07.300Z,8.76
2022-11-24T21:23:34.823Z,8.95
2022-11-24T21:26:05.593Z,8.94
2022-11-24T21:28:34.804Z,8.89
2022-11-24T21:31:03.888Z,8.99
2022-11-24T21:33:31.396Z,8.82
2022-11-24T21:36:01.648Z,8.83
2022-11-24T21:38:29.118Z,8.99
2022-11-24T21:40:59.656Z,9.05
2022-11-24T21:43:27.942Z,8.92
2022-11-24T21:45:56.864Z,8.77
2022-11-24T21:48:24.420Z,9.03
2022-11-24T21:50:51.859Z,8.79
2022-11-24T21:53:19.343Z,8.90
2022-11-24T21:55:54.449Z,8.81
2022-11-24T21:58:22.511Z,9.02
2022-11-24T22:00:50.085Z,8.78
2022-11-24T22:03:19.021Z,8.50
2022-11-24T22:05:53.364Z,8.57
2022-11-24T22:08:20.984Z,8.76
2022-11-24T22:10:48.450Z,9.00
2022-11-24T22:13:16.052Z,8.90
2022-11-24T22:15:43.623Z,8.80
2022-11-24T22:18:11.176Z,8.52
2022-11-24T22:20:40.076Z,8.71
2022-11-24T22:23:07.843Z,8.72
2022-11-24T22:25:35.536Z,8.59
2022-11-24T22:28:03.042Z,8.60
2022-11-24T22:30:30.590Z,8.85
2022-11-24T22:32:58.133Z,8.64
2022-11-24T22:35:25.622Z,8.97
2022-11-24T22:37:54.432Z,8.85
2022-11-24T22:40:21.894Z,9.02
2022-11-24T22:42:49.393Z,8.88
2022-11-24T22:45:16.951Z,8.89
2022-11-24T22:47:44.395Z,8.71
2022-11-24T22:50:12.471Z,8.60
2022-11-24T22:52:40.398Z,8.84
2022-11-24T22:55:09.563Z,8.61
2022-11-24T22:57:37.080Z,8.61
2022-11-24T23:00:04.846Z,8.73
2022-11-24T23:02:32.455Z,8.95
2022-11-24T23:05:00.004Z,8.98
2022-11-24T23:07:27.497Z,9.07
2022-11-24T23:09:55.004Z,9.37
2022-11-24T23:12:23.902Z,9.33
2022-11-24T23:14:51.624Z,9.47
2022-11-24T23:17:19.094Z,9.42
2022-11-24T23:19:46.534Z,9.35
2022-11-24T23:22:14.048Z,9.40
2022-11-24T23:24:41.515Z,9.72
2022-11-24T23:27:09.052Z,9.81
2022-11-24T23:29:37.950Z,9.60
2022-11-24T23:32:05.783Z,9.42
2022-11-24T23:34:33.427Z,9.64
2022-11-24T23:37:02.313Z,9.48
2022-11-24T23:39:29.797Z,9.39
2022-11-24T23:41:57.379Z,9.38
2022-11-24T23:44:24.930Z,9.29
2022-11-24T23:46:53.739Z,9.34
2022-11-24T23:49:21.248Z,9.44
2022-11-24T23:51:48.816Z,9.39
2022-11-24T23:54:16.283Z,9.13
2022-11-24T23:56:43.734Z,9.35
2022-11-24T23:59:11.587Z,9.56
